Old Hickory, Tennessee
Current Conditions -  °F | °C
As of 12:39 PM on Thursday 27 Nov 2014 (Local Time) from KBNA Reporting Station
Overcast Overcast  
Wind Chill: 29°   Ceiling: 3400
Heat Index: 37°   Visibility: 10mi
Dew Point: 27°   Wind: 13mph
Humidity: 65%   Direction: 350°N
Pressure: 30.41"   Gusts: 18mph
Location:  36.26°N, 86.65°W
Report Text: KBNA 271839Z 35011G16KT 10SM SCT027 OVC034 03/M03 A3041 RMK AO2
Loading
Personal Weather Stations






























Interactive Weather Map New forecast layout! Learn more

10-Day Weather Forecast

Advertisements
Track Severe Weather on mobile